Time;durP1;ratioP1;P1;durP2;ratioP2;P2;SDS_P1;SDS_P2;PMS_P1;PMS_P2;Temp;Humidity;BMP_temperature;BMP_pressure;BME280_temperature;BME280_humidity;BME280_pressure;Samples;Min_cycle;Max_cycle;Signal;HPM_P1;HPM_P2
2022/05/22 00:00:04;;;;;;;4.55;1.80;;;;;;;;;;5054895;28;20044;-63
2022/05/22 00:02:30;;;;;;;4.25;1.90;;;;;;;;;;5053561;28;20120;-62
2022/05/22 00:04:57;;;;;;;5.20;2.10;;;;;;;;;;5051668;28;20123;-62
2022/05/22 00:07:24;;;;;;;3.90;1.70;;;;;;;;;;5053878;28;20071;-62
2022/05/22 00:09:50;;;;;;;4.70;1.80;;;;;;;;;;5056831;28;20104;-63
2022/05/22 00:12:17;;;;;;;3.85;1.90;;;;;;;;;;5056602;28;20037;-64
2022/05/22 00:14:44;;;;;;;4.75;2.17;;;;;;;;;;5055416;28;20142;-63
2022/05/22 00:17:11;;;;;;;4.63;2.00;;;;;;;;;;5056276;28;20033;-63
2022/05/22 00:19:39;;;;;;;4.20;2.00;;;;;;;;;;5046788;28;20049;-62
2022/05/22 00:22:06;;;;;;;5.85;1.77;;;;;;;;;;5033601;28;20091;-63
2022/05/22 00:24:33;;;;;;;4.45;2.40;;;;;;;;;;5032582;28;20042;-63
2022/05/22 00:27:02;;;;;;;7.10;2.10;;;;;;;;;;5033349;28;20041;-62
2022/05/22 00:29:29;;;;;;;4.47;1.70;;;;;;;;;;5031704;28;20037;-63
2022/05/22 00:31:56;;;;;;;5.43;2.33;;;;;;;;;;5020043;28;20052;-63
2022/05/22 00:34:23;;;;;;;5.07;2.00;;;;;;;;;;5030201;28;20155;-62
2022/05/22 00:37:12;;;;;;;4.38;1.73;;;;;;;;;;4994985;28;20042;-62
2022/05/22 00:39:39;;;;;;;4.47;1.77;;;;;;;;;;5008327;28;20846;-63
2022/05/22 00:42:14;;;;;;;4.55;1.80;;;;;;;;;;5008588;28;20057;-63
2022/05/22 00:44:40;;;;;;;4.00;2.00;;;;;;;;;;5009214;28;20231;-62
2022/05/22 00:47:07;;;;;;;4.20;1.88;;;;;;;;;;4998423;28;20038;-62
2022/05/22 00:49:35;;;;;;;4.25;2.13;;;;;;;;;;4970825;28;20389;-62
2022/05/22 00:52:11;;;;;;;3.97;1.80;;;;;;;;;;4971087;28;20038;-62
2022/05/22 00:54:40;;;;;;;3.85;1.75;;;;;;;;;;4968960;28;20950;-62
2022/05/22 00:57:07;;;;;;;5.65;2.17;;;;;;;;;;4968758;28;20058;-62
2022/05/22 00:59:38;;;;;;;3.75;1.80;;;;;;;;;;4969780;28;20510;-62
2022/05/22 01:02:05;;;;;;;4.93;1.85;;;;;;;;;;4969324;28;20056;-62
2022/05/22 01:04:33;;;;;;;3.97;1.90;;;;;;;;;;4968853;28;20500;-61
2022/05/22 01:07:01;;;;;;;4.03;1.90;;;;;;;;;;4969729;28;20046;-62
2022/05/22 01:09:28;;;;;;;5.68;2.20;;;;;;;;;;5028741;28;20045;-61
2022/05/22 01:11:59;;;;;;;5.82;1.90;;;;;;;;;;5030695;28;20087;-61
2022/05/22 01:14:27;;;;;;;3.90;1.70;;;;;;;;;;5032165;28;20048;-62
2022/05/22 01:16:54;;;;;;;6.35;1.70;;;;;;;;;;5030203;28;20042;-62
2022/05/22 01:19:23;;;;;;;3.50;1.60;;;;;;;;;;5031681;28;20057;-62
2022/05/22 01:21:51;;;;;;;3.47;1.50;;;;;;;;;;5036001;28;20729;-63
2022/05/22 01:24:17;;;;;;;5.40;1.88;;;;;;;;;;5032421;28;20102;-63
2022/05/22 01:26:45;;;;;;;4.95;1.70;;;;;;;;;;5029930;28;20071;-62
2022/05/22 01:29:11;;;;;;;5.95;1.83;;;;;;;;;;5032075;28;20055;-63
2022/05/22 01:31:38;;;;;;;7.30;1.77;;;;;;;;;;5032428;28;20734;-62
2022/05/22 01:34:05;;;;;;;3.85;1.85;;;;;;;;;;5030179;28;20037;-62
2022/05/22 01:36:32;;;;;;;4.88;1.83;;;;;;;;;;5035668;28;20162;-62
2022/05/22 01:38:59;;;;;;;4.88;2.00;;;;;;;;;;5035381;28;20076;-61
2022/05/22 01:41:25;;;;;;;4.50;1.88;;;;;;;;;;5031765;28;20128;-62
2022/05/22 01:43:52;;;;;;;3.95;1.75;;;;;;;;;;5033750;28;20041;-61
2022/05/22 01:46:19;;;;;;;3.47;1.70;;;;;;;;;;5036512;28;20060;-64
2022/05/22 01:48:45;;;;;;;4.30;1.70;;;;;;;;;;5049090;28;20037;-62
2022/05/22 01:51:12;;;;;;;5.50;1.88;;;;;;;;;;5054259;28;20085;-62
2022/05/22 01:53:39;;;;;;;4.07;1.83;;;;;;;;;;5054400;28;20154;-62
2022/05/22 01:56:06;;;;;;;4.10;2.03;;;;;;;;;;5054625;28;20045;-62
2022/05/22 01:58:33;;;;;;;5.60;2.63;;;;;;;;;;5053897;28;20055;-62
2022/05/22 02:00:59;;;;;;;4.30;2.10;;;;;;;;;;5056282;28;20029;-61
2022/05/22 02:03:26;;;;;;;3.50;1.67;;;;;;;;;;5054208;28;20033;-62
2022/05/22 02:05:53;;;;;;;5.85;1.98;;;;;;;;;;5055108;28;20045;-63
2022/05/22 02:08:21;;;;;;;4.55;2.00;;;;;;;;;;5054083;28;20049;-62
2022/05/22 02:10:53;;;;;;;5.70;2.30;;;;;;;;;;5055035;28;20037;-63
2022/05/22 02:13:21;;;;;;;4.40;1.92;;;;;;;;;;5052085;28;20905;-63
2022/05/22 02:15:49;;;;;;;4.65;1.80;;;;;;;;;;5052705;28;20037;-61
2022/05/22 02:18:16;;;;;;;6.35;1.92;;;;;;;;;;5049929;28;20037;-62
2022/05/22 02:20:43;;;;;;;4.78;1.73;;;;;;;;;;5031895;28;20537;-61
2022/05/22 02:23:09;;;;;;;3.95;2.00;;;;;;;;;;5048130;28;20040;-62
2022/05/22 02:25:38;;;;;;;4.65;1.98;;;;;;;;;;5048578;28;20116;-63
2022/05/22 02:28:07;;;;;;;4.53;2.00;;;;;;;;;;5054094;28;20032;-61
2022/05/22 02:30:36;;;;;;;5.75;2.58;;;;;;;;;;5053837;28;20494;-61
2022/05/22 02:33:03;;;;;;;5.00;2.30;;;;;;;;;;5035143;28;20551;-61
2022/05/22 02:35:30;;;;;;;4.97;2.42;;;;;;;;;;5049017;28;20055;-63
2022/05/22 02:37:57;;;;;;;6.43;2.38;;;;;;;;;;5048558;28;20041;-64
2022/05/22 02:40:25;;;;;;;5.85;2.03;;;;;;;;;;5048091;28;20048;-63
2022/05/22 02:42:53;;;;;;;6.75;2.55;;;;;;;;;;5049797;28;20508;-62
2022/05/22 02:45:22;;;;;;;6.63;3.00;;;;;;;;;;5046575;28;20068;-63
2022/05/22 02:47:48;;;;;;;10.35;3.53;;;;;;;;;;5048198;28;20134;-62
2022/05/22 02:50:16;;;;;;;6.07;2.70;;;;;;;;;;5049680;28;20037;-61
2022/05/22 02:52:43;;;;;;;6.40;2.53;;;;;;;;;;5048483;28;20044;-61
2022/05/22 02:55:10;;;;;;;7.00;3.13;;;;;;;;;;5049550;28;20044;-62
2022/05/22 02:57:38;;;;;;;6.00;2.65;;;;;;;;;;5046382;28;20774;-62
2022/05/22 03:00:14;;;;;;;5.28;2.30;;;;;;;;;;5047828;28;20052;-62
2022/05/22 03:02:41;;;;;;;5.15;2.80;;;;;;;;;;5046382;28;20518;-62
2022/05/22 03:05:08;;;;;;;5.93;2.85;;;;;;;;;;5046483;28;20033;-63
2022/05/22 03:07:36;;;;;;;7.45;2.38;;;;;;;;;;5046500;28;20033;-63
2022/05/22 03:10:03;;;;;;;5.55;3.00;;;;;;;;;;5048445;28;20582;-62
2022/05/22 03:12:30;;;;;;;7.03;2.40;;;;;;;;;;5044620;28;20032;-62
2022/05/22 03:14:58;;;;;;;8.80;2.58;;;;;;;;;;5046328;28;20105;-62
2022/05/22 03:17:25;;;;;;;6.78;2.65;;;;;;;;;;5030300;28;20037;-63
2022/05/22 03:19:52;;;;;;;6.07;2.90;;;;;;;;;;5048216;28;20063;-62
2022/05/22 03:22:19;;;;;;;5.72;2.70;;;;;;;;;;5048559;28;20041;-63
2022/05/22 03:24:46;;;;;;;7.90;2.72;;;;;;;;;;5046693;28;20091;-62
2022/05/22 03:27:15;;;;;;;5.00;2.40;;;;;;;;;;5029673;28;20401;-62
2022/05/22 03:29:42;;;;;;;5.32;2.40;;;;;;;;;;5049187;28;20056;-63
2022/05/22 03:32:09;;;;;;;6.18;2.75;;;;;;;;;;5051032;28;20045;-62
2022/05/22 03:34:36;;;;;;;5.88;2.75;;;;;;;;;;5048495;28;20037;-62
2022/05/22 03:37:04;;;;;;;9.70;2.80;;;;;;;;;;5049025;28;20163;-63
2022/05/22 03:39:30;;;;;;;4.78;2.20;;;;;;;;;;5045733;28;20049;-60
2022/05/22 03:41:58;;;;;;;9.88;2.50;;;;;;;;;;5047975;28;20041;-62
2022/05/22 03:44:25;;;;;;;9.63;5.05;;;;;;;;;;5047033;28;20060;-62
2022/05/22 03:46:52;;;;;;;20.92;8.65;;;;;;;;;;5047116;28;20117;-62
2022/05/22 03:49:18;;;;;;;14.98;7.40;;;;;;;;;;5050551;28;20613;-64
2022/05/22 03:51:45;;;;;;;10.98;3.83;;;;;;;;;;5051999;28;20789;-66
2022/05/22 03:54:12;;;;;;;8.02;3.50;;;;;;;;;;5048381;28;20036;-63
2022/05/22 03:56:39;;;;;;;7.45;2.67;;;;;;;;;;5047026;28;20488;-62
2022/05/22 03:59:06;;;;;;;8.45;2.45;;;;;;;;;;5049723;28;20048;-63
2022/05/22 04:01:33;;;;;;;7.00;3.00;;;;;;;;;;5046519;28;20033;-64
2022/05/22 04:03:59;;;;;;;5.22;2.42;;;;;;;;;;5048639;28;20122;-63
2022/05/22 04:06:26;;;;;;;6.28;2.80;;;;;;;;;;5048917;28;20446;-63
2022/05/22 04:08:53;;;;;;;7.28;2.58;;;;;;;;;;5051014;28;20041;-63
2022/05/22 04:11:20;;;;;;;4.72;2.60;;;;;;;;;;5033307;28;20131;-64
2022/05/22 04:13:47;;;;;;;5.30;2.80;;;;;;;;;;5053504;28;20036;-64
2022/05/22 04:16:14;;;;;;;7.05;2.72;;;;;;;;;;5057202;28;20620;-63
2022/05/22 04:18:41;;;;;;;5.47;2.60;;;;;;;;;;5058162;28;20464;-63
2022/05/22 04:21:09;;;;;;;5.70;2.72;;;;;;;;;;5058732;28;20120;-63
2022/05/22 04:26:21;;;;;;;5.63;2.53;;;;;;;;;;5055912;28;20075;-63
2022/05/22 04:28:47;;;;;;;8.27;2.50;;;;;;;;;;5055351;28;20049;-63
2022/05/22 04:31:15;;;;;;;5.00;2.40;;;;;;;;;;5056222;28;21036;-64
2022/05/22 04:33:42;;;;;;;5.32;2.60;;;;;;;;;;5055248;28;20099;-63
2022/05/22 04:36:09;;;;;;;4.63;2.35;;;;;;;;;;5052713;28;20048;-63
2022/05/22 04:38:35;;;;;;;9.95;2.83;;;;;;;;;;5048832;28;20072;-63
2022/05/22 04:41:03;;;;;;;5.75;2.90;;;;;;;;;;5050721;28;20093;-64
2022/05/22 04:43:49;;;;;;;6.88;2.80;;;;;;;;;;4990548;28;20042;-64
2022/05/22 04:46:16;;;;;;;5.57;3.13;;;;;;;;;;4990471;28;20053;-63
2022/05/22 04:48:43;;;;;;;6.18;3.00;;;;;;;;;;4979901;28;20491;-64
2022/05/22 04:51:09;;;;;;;7.78;3.53;;;;;;;;;;4990391;28;20084;-64
2022/05/22 04:53:36;;;;;;;7.90;3.75;;;;;;;;;;4990962;28;20034;-64
2022/05/22 04:56:03;;;;;;;5.47;3.03;;;;;;;;;;4990710;28;20038;-64
2022/05/22 04:58:30;;;;;;;7.38;3.05;;;;;;;;;;4984849;28;20679;-63
2022/05/22 05:00:57;;;;;;;7.20;3.35;;;;;;;;;;4988754;28;20050;-63
2022/05/22 05:03:24;;;;;;;7.43;3.40;;;;;;;;;;4972491;28;20097;-63
2022/05/22 05:05:55;;;;;;;5.47;2.72;;;;;;;;;;4972949;28;20112;-62
2022/05/22 05:08:23;;;;;;;7.13;3.40;;;;;;;;;;4976431;28;20082;-64
2022/05/22 05:10:51;;;;;;;5.60;3.00;;;;;;;;;;4972433;28;20416;-64
2022/05/22 05:13:18;;;;;;;7.90;3.83;;;;;;;;;;4973562;28;20124;-64
2022/05/22 05:15:45;;;;;;;7.75;2.95;;;;;;;;;;4971647;28;20132;-64
2022/05/22 05:18:13;;;;;;;5.78;3.17;;;;;;;;;;4972429;28;20035;-64
2022/05/22 05:20:41;;;;;;;5.55;3.17;;;;;;;;;;4994959;28;20044;-63
2022/05/22 05:23:08;;;;;;;5.68;2.97;;;;;;;;;;5051209;28;20033;-63
2022/05/22 05:25:35;;;;;;;8.63;3.50;;;;;;;;;;5047775;28;20041;-63
2022/05/22 05:28:01;;;;;;;6.22;3.35;;;;;;;;;;5050486;28;20148;-62
2022/05/22 05:30:28;;;;;;;9.35;3.42;;;;;;;;;;5049251;28;20052;-62
2022/05/22 05:32:56;;;;;;;6.13;3.13;;;;;;;;;;5051872;28;20043;-63
2022/05/22 05:35:22;;;;;;;9.73;3.35;;;;;;;;;;5049613;28;20036;-64
2022/05/22 05:37:49;;;;;;;7.00;3.78;;;;;;;;;;5051414;28;20113;-64
2022/05/22 05:40:16;;;;;;;7.35;3.25;;;;;;;;;;5049477;28;20532;-64
2022/05/22 05:42:43;;;;;;;7.35;3.45;;;;;;;;;;5048833;28;20037;-63
2022/05/22 05:45:11;;;;;;;8.30;4.00;;;;;;;;;;5049010;28;20037;-63
2022/05/22 05:47:38;;;;;;;8.32;3.47;;;;;;;;;;5048862;28;20266;-64
2022/05/22 05:50:05;;;;;;;7.85;3.72;;;;;;;;;;5049071;28;20048;-64
2022/05/22 05:52:32;;;;;;;6.28;3.53;;;;;;;;;;5051059;28;20072;-64
2022/05/22 05:54:59;;;;;;;7.15;3.25;;;;;;;;;;5034348;28;20055;-64
2022/05/22 05:57:25;;;;;;;8.52;4.07;;;;;;;;;;5041488;28;20041;-64
2022/05/22 05:59:55;;;;;;;7.07;3.95;;;;;;;;;;5056039;28;20036;-64
2022/05/22 06:02:22;;;;;;;7.45;3.85;;;;;;;;;;5031991;28;20086;-64
2022/05/22 06:04:49;;;;;;;9.88;3.90;;;;;;;;;;5053437;28;20519;-63
2022/05/22 06:07:15;;;;;;;7.47;3.33;;;;;;;;;;5054487;28;20102;-63
2022/05/22 06:09:42;;;;;;;7.88;3.33;;;;;;;;;;5052175;28;20047;-63
2022/05/22 06:12:09;;;;;;;9.07;3.97;;;;;;;;;;5051263;28;20059;-64
2022/05/22 06:14:36;;;;;;;7.63;3.33;;;;;;;;;;5050558;28;20040;-64
2022/05/22 06:17:03;;;;;;;6.15;3.50;;;;;;;;;;5050583;28;20037;-64
2022/05/22 06:22:15;;;;;;;7.15;3.50;;;;;;;;;;5052979;28;20509;-64
2022/05/22 06:24:43;;;;;;;6.07;3.20;;;;;;;;;;5049590;28;20044;-64
2022/05/22 06:27:10;;;;;;;7.18;3.70;;;;;;;;;;5050717;28;20032;-64
2022/05/22 06:29:36;;;;;;;7.53;3.58;;;;;;;;;;5049848;28;20043;-64
2022/05/22 06:32:03;;;;;;;7.35;3.58;;;;;;;;;;5051050;28;20094;-63
2022/05/22 06:34:33;;;;;;;8.98;3.80;;;;;;;;;;5048559;28;20033;-64
2022/05/22 06:37:02;;;;;;;7.97;3.40;;;;;;;;;;5036022;28;20095;-64
2022/05/22 06:42:15;;;;;;;10.25;3.85;;;;;;;;;;5056051;28;20105;-64
2022/05/22 06:44:42;;;;;;;11.15;3.97;;;;;;;;;;5052232;28;20512;-64
2022/05/22 06:47:09;;;;;;;6.93;3.50;;;;;;;;;;5055650;28;20049;-65
2022/05/22 06:49:36;;;;;;;9.10;3.63;;;;;;;;;;5049836;28;20831;-65
2022/05/22 06:52:03;;;;;;;7.78;3.60;;;;;;;;;;5056060;28;20037;-67
2022/05/22 06:54:30;;;;;;;8.80;3.28;;;;;;;;;;5051337;28;20037;-63
2022/05/22 06:56:58;;;;;;;6.68;3.20;;;;;;;;;;5053498;28;20076;-64
2022/05/22 06:59:24;;;;;;;7.95;3.50;;;;;;;;;;5051716;28;20044;-64
2022/05/22 07:01:51;;;;;;;5.55;2.97;;;;;;;;;;5050247;28;20044;-66
2022/05/22 07:04:21;;;;;;;8.80;3.70;;;;;;;;;;5052229;28;20045;-64
2022/05/22 07:06:50;;;;;;;12.63;4.50;;;;;;;;;;5051013;28;20054;-64
2022/05/22 07:09:17;;;;;;;10.43;4.75;;;;;;;;;;5051505;28;20059;-65
2022/05/22 07:11:45;;;;;;;9.57;4.63;;;;;;;;;;5047589;28;20160;-64
2022/05/22 07:14:15;;;;;;;12.80;4.32;;;;;;;;;;5013128;28;20037;-64
2022/05/22 07:16:43;;;;;;;12.93;4.55;;;;;;;;;;5047812;28;20136;-63
2022/05/22 07:19:10;;;;;;;11.40;4.90;;;;;;;;;;5049021;28;20048;-63
2022/05/22 07:21:37;;;;;;;9.10;4.25;;;;;;;;;;5047348;28;20170;-63
2022/05/22 07:24:04;;;;;;;8.75;4.43;;;;;;;;;;5047972;28;20040;-64
2022/05/22 07:26:31;;;;;;;6.95;4.00;;;;;;;;;;5047576;28;20082;-65
2022/05/22 07:28:58;;;;;;;8.07;4.35;;;;;;;;;;5048579;28;20133;-63
2022/05/22 07:31:26;;;;;;;13.05;4.45;;;;;;;;;;5049162;28;20731;-63
2022/05/22 07:33:53;;;;;;;8.55;4.22;;;;;;;;;;5048328;28;20059;-63
2022/05/22 07:36:20;;;;;;;8.65;4.10;;;;;;;;;;5049466;28;20098;-63
2022/05/22 07:38:47;;;;;;;6.70;3.78;;;;;;;;;;5044600;28;20052;-64
2022/05/22 07:41:14;;;;;;;11.25;4.50;;;;;;;;;;5047505;28;20044;-64
2022/05/22 07:43:41;;;;;;;9.05;4.43;;;;;;;;;;5047585;28;20092;-64
2022/05/22 07:46:08;;;;;;;7.47;3.85;;;;;;;;;;5047459;28;20391;-63
2022/05/22 07:48:35;;;;;;;7.72;4.43;;;;;;;;;;5047780;28;20984;-63
2022/05/22 07:51:03;;;;;;;8.10;4.10;;;;;;;;;;5054447;28;20484;-65
2022/05/22 07:53:30;;;;;;;10.32;4.32;;;;;;;;;;5040272;28;20082;-63
2022/05/22 07:55:57;;;;;;;7.32;4.20;;;;;;;;;;5051017;28;20076;-63
2022/05/22 07:58:25;;;;;;;10.93;4.10;;;;;;;;;;5051972;28;20044;-64
2022/05/22 08:00:52;;;;;;;8.25;4.05;;;;;;;;;;5039997;28;20040;-62
2022/05/22 08:03:19;;;;;;;7.70;4.18;;;;;;;;;;5036318;28;20037;-61
2022/05/22 08:05:46;;;;;;;9.77;4.07;;;;;;;;;;5052609;28;20033;-62
2022/05/22 08:08:13;;;;;;;10.63;4.25;;;;;;;;;;5053263;28;20029;-63
2022/05/22 08:10:41;;;;;;;8.05;4.40;;;;;;;;;;5052669;28;20353;-65
2022/05/22 08:13:08;;;;;;;9.90;4.10;;;;;;;;;;5054635;28;20055;-65
2022/05/22 08:15:36;;;;;;;8.73;4.30;;;;;;;;;;5053094;28;20890;-64
2022/05/22 08:18:03;;;;;;;10.90;4.60;;;;;;;;;;5053623;28;20888;-64
2022/05/22 08:20:33;;;;;;;8.43;4.32;;;;;;;;;;5050558;28;20037;-63
2022/05/22 08:23:01;;;;;;;9.20;4.07;;;;;;;;;;5055642;28;20045;-64
2022/05/22 08:25:28;;;;;;;11.43;4.32;;;;;;;;;;5054289;28;20044;-64
2022/05/22 08:27:56;;;;;;;9.73;4.43;;;;;;;;;;5055273;28;20317;-64
2022/05/22 08:30:24;;;;;;;9.93;4.93;;;;;;;;;;5054566;28;20033;-65
2022/05/22 08:32:51;;;;;;;8.27;4.28;;;;;;;;;;5052652;28;20053;-65
2022/05/22 08:35:25;;;;;;;9.85;4.47;;;;;;;;;;5052246;28;20032;-64
2022/05/22 08:37:52;;;;;;;11.85;4.22;;;;;;;;;;5051108;28;20170;-64
2022/05/22 08:40:21;;;;;;;8.35;4.20;;;;;;;;;;5051487;28;20090;-64
2022/05/22 08:42:49;;;;;;;15.27;4.55;;;;;;;;;;5049514;28;20099;-64
2022/05/22 08:45:28;;;;;;;11.68;4.10;;;;;;;;;;5049335;28;20045;-64
2022/05/22 08:48:07;;;;;;;9.93;4.97;;;;;;;;;;5051635;28;20055;-64
2022/05/22 08:50:34;;;;;;;7.55;3.97;;;;;;;;;;5050174;28;20036;-64
2022/05/22 08:53:04;;;;;;;8.68;4.68;;;;;;;;;;5049813;28;20505;-64
2022/05/22 09:01:24;;;;;;;8.15;4.32;;;;;;;;;;5050634;28;20095;-63
2022/05/22 09:03:55;;;;;;;9.75;3.63;;;;;;;;;;5049737;28;20041;-64
2022/05/22 09:06:27;;;;;;;7.80;4.53;;;;;;;;;;5047220;28;20958;-65
2022/05/22 09:08:54;;;;;;;7.88;4.35;;;;;;;;;;5048509;28;20044;-63
2022/05/22 09:11:21;;;;;;;9.02;4.68;;;;;;;;;;5045536;28;20064;-64
2022/05/22 09:13:55;;;;;;;14.57;4.68;;;;;;;;;;5049599;28;20910;-64
2022/05/22 09:16:48;;;;;;;10.23;5.13;;;;;;;;;;5049446;28;20040;-64
2022/05/22 09:19:20;;;;;;;11.05;4.50;;;;;;;;;;5014982;28;20456;-64
2022/05/22 09:21:59;;;;;;;11.20;4.35;;;;;;;;;;5031463;28;20044;-63
2022/05/22 09:24:29;;;;;;;7.88;4.45;;;;;;;;;;5047354;28;20071;-64
2022/05/22 09:27:09;;;;;;;8.90;4.57;;;;;;;;;;5047297;28;20040;-63
2022/05/22 09:29:37;;;;;;;9.15;4.40;;;;;;;;;;5048916;28;20174;-64
2022/05/22 09:32:09;;;;;;;8.55;4.63;;;;;;;;;;5051758;28;20469;-64
2022/05/22 09:34:42;;;;;;;8.20;3.80;;;;;;;;;;5047602;28;20045;-65
2022/05/22 09:37:27;;;;;;;10.25;4.47;;;;;;;;;;5048134;28;20079;-64
2022/05/22 09:39:59;;;;;;;8.82;4.40;;;;;;;;;;5048034;28;20515;-65
2022/05/22 09:42:26;;;;;;;9.32;3.58;;;;;;;;;;5046862;28;20040;-66
2022/05/22 09:45:11;;;;;;;8.32;4.35;;;;;;;;;;5046724;28;20045;-65
2022/05/22 09:47:38;;;;;;;6.95;4.00;;;;;;;;;;5047505;28;20088;-65
2022/05/22 09:50:04;;;;;;;9.15;4.30;;;;;;;;;;5047517;28;20051;-65
2022/05/22 09:53:04;;;;;;;10.80;4.78;;;;;;;;;;5048308;28;20051;-65
2022/05/22 09:55:44;;;;;;;9.13;4.78;;;;;;;;;;4998699;28;20441;-65
2022/05/22 09:58:20;;;;;;;13.57;4.68;;;;;;;;;;5048244;28;20708;-64
2022/05/22 10:00:58;;;;;;;7.47;4.38;;;;;;;;;;5047611;28;20056;-64
2022/05/22 10:03:25;;;;;;;13.27;4.90;;;;;;;;;;5046830;28;20036;-64
2022/05/22 10:06:10;;;;;;;14.27;5.93;;;;;;;;;;5047187;28;20048;-65
2022/05/22 10:08:52;;;;;;;7.95;4.63;;;;;;;;;;5046177;28;20060;-65
2022/05/22 10:11:28;;;;;;;9.38;4.80;;;;;;;;;;5029030;28;20041;-65
2022/05/22 10:14:10;;;;;;;9.82;4.63;;;;;;;;;;5045842;28;20153;-65
2022/05/22 10:16:51;;;;;;;10.30;4.43;;;;;;;;;;5047285;28;20060;-65
2022/05/22 10:19:27;;;;;;;15.30;4.72;;;;;;;;;;5048064;28;20060;-65
2022/05/22 10:22:10;;;;;;;11.23;5.05;;;;;;;;;;5047734;28;21949;-64
2022/05/22 10:24:46;;;;;;;11.63;4.90;;;;;;;;;;5037205;28;20997;-65
2022/05/22 10:27:51;;;;;;;11.98;4.95;;;;;;;;;;5046354;28;20049;-63
2022/05/22 10:30:18;;;;;;;11.00;4.45;;;;;;;;;;4970799;28;20578;-63
2022/05/22 10:32:45;;;;;;;12.45;4.70;;;;;;;;;;4971405;28;20046;-64
2022/05/22 10:35:11;;;;;;;14.73;4.88;;;;;;;;;;5007373;28;20482;-63
2022/05/22 10:37:44;;;;;;;9.45;4.18;;;;;;;;;;5046037;28;20077;-63
2022/05/22 10:40:14;;;;;;;7.18;3.75;;;;;;;;;;5047580;28;20043;-64
2022/05/22 10:42:45;;;;;;;10.45;4.45;;;;;;;;;;5046124;28;20429;-64
2022/05/22 10:45:19;;;;;;;10.55;4.10;;;;;;;;;;5027942;28;20555;-65
2022/05/22 10:47:45;;;;;;;6.93;4.30;;;;;;;;;;5045967;28;20107;-65
2022/05/22 10:50:20;;;;;;;10.30;4.55;;;;;;;;;;5037090;28;20025;-63
2022/05/22 10:52:48;;;;;;;7.70;3.85;;;;;;;;;;5047961;28;20040;-64
2022/05/22 10:55:33;;;;;;;13.93;4.43;;;;;;;;;;5048269;28;20037;-64
2022/05/22 10:58:06;;;;;;;7.45;4.05;;;;;;;;;;5047031;28;20052;-65
2022/05/22 11:00:34;;;;;;;8.07;4.03;;;;;;;;;;5046274;28;20500;-64
2022/05/22 11:03:18;;;;;;;8.77;4.13;;;;;;;;;;5049620;28;20147;-63
2022/05/22 11:05:52;;;;;;;10.70;4.35;;;;;;;;;;5046663;28;20040;-63
2022/05/22 11:08:18;;;;;;;;;;;;;;;;;;5047564;28;20040;-63
2022/05/22 11:10:47;;;;;;;8.10;4.25;;;;;;;;;;5047979;28;20382;-63
2022/05/22 11:13:22;;;;;;;9.43;5.10;;;;;;;;;;5047640;28;20037;-64
2022/05/22 11:15:48;;;;;;;10.18;4.50;;;;;;;;;;5045477;28;20040;-64
2022/05/22 11:18:25;;;;;;;8.73;4.15;;;;;;;;;;5045272;28;20036;-64
2022/05/22 11:20:57;;;;;;;9.88;4.38;;;;;;;;;;5035243;28;20048;-64
2022/05/22 11:23:23;;;;;;;7.20;3.90;;;;;;;;;;5045988;28;20081;-64
2022/05/22 11:26:08;;;;;;;6.07;3.30;;;;;;;;;;5047903;28;20052;-64
2022/05/22 11:28:53;;;;;;;5.88;3.10;;;;;;;;;;5047089;28;20634;-64
2022/05/22 11:31:38;;;;;;;8.50;3.80;;;;;;;;;;5047232;28;20063;-65
2022/05/22 11:34:11;;;;;;;5.30;3.03;;;;;;;;;;5048362;28;20059;-64
2022/05/22 11:36:38;;;;;;;;;;;;;;;;;;5046076;28;20041;-64
2022/05/22 11:39:10;;;;;;;5.45;2.92;;;;;;;;;;5047834;28;19925;-64
2022/05/22 11:41:57;;;;;;;6.03;3.43;;;;;;;;;;5046591;28;20531;-64
2022/05/22 11:44:42;;;;;;;7.25;3.63;;;;;;;;;;5046207;28;20045;-63
2022/05/22 11:47:32;;;;;;;7.88;3.78;;;;;;;;;;5047765;28;20067;-64
2022/05/22 11:50:25;;;;;;;6.63;3.63;;;;;;;;;;5039338;28;20037;-64
2022/05/22 11:53:11;;;;;;;8.75;3.97;;;;;;;;;;5014447;28;20051;-64
2022/05/22 11:55:41;;;;;;;5.63;3.15;;;;;;;;;;5046298;28;20517;-64
2022/05/22 11:58:13;;;;;;;7.05;3.83;;;;;;;;;;5045988;28;20036;-63
2022/05/22 12:00:48;;;;;;;7.90;3.83;;;;;;;;;;5045014;28;20137;-64
2022/05/22 12:03:15;;;;;;;7.95;3.83;;;;;;;;;;5047034;28;20055;-63
2022/05/22 12:05:47;;;;;;;7.70;3.70;;;;;;;;;;5045871;28;20056;-64
2022/05/22 12:08:23;;;;;;;11.02;4.03;;;;;;;;;;5048353;28;20045;-63
2022/05/22 12:11:03;;;;;;;8.32;3.60;;;;;;;;;;5047580;28;20434;-64
2022/05/22 12:13:33;;;;;;;8.70;3.80;;;;;;;;;;5048888;28;20045;-64
2022/05/22 12:16:00;;;;;;;8.45;3.80;;;;;;;;;;5046945;28;20052;-65
2022/05/22 12:18:45;;;;;;;10.13;4.25;;;;;;;;;;5047516;28;20223;-65
2022/05/22 12:21:27;;;;;;;8.68;3.83;;;;;;;;;;5047875;28;20133;-64
2022/05/22 12:23:58;;;;;;;5.80;3.75;;;;;;;;;;5047258;28;20052;-63
2022/05/22 12:26:25;;;;;;;7.25;4.05;;;;;;;;;;5047094;28;20048;-64
2022/05/22 12:29:03;;;;;;;11.88;4.28;;;;;;;;;;5048440;28;20041;-64
2022/05/22 12:31:36;;;;;;;7.53;4.18;;;;;;;;;;5048292;28;20052;-63
2022/05/22 12:34:07;;;;;;;12.10;3.78;;;;;;;;;;5050695;28;20052;-64
2022/05/22 12:36:34;;;;;;;9.63;4.10;;;;;;;;;;5050403;28;20036;-63
2022/05/22 12:39:04;;;;;;;9.52;5.15;;;;;;;;;;5055327;28;20060;-63
2022/05/22 12:41:51;;;;;;;8.27;3.97;;;;;;;;;;5054814;28;20208;-63
2022/05/22 12:44:18;;;;;;;10.68;4.30;;;;;;;;;;5039982;28;20029;-63
2022/05/22 12:46:45;;;;;;;9.70;4.32;;;;;;;;;;5049817;28;20052;-64
2022/05/22 12:49:28;;;;;;;8.35;4.18;;;;;;;;;;5052592;28;20044;-64
2022/05/22 12:52:13;;;;;;;8.10;4.37;;;;;;;;;;5052223;28;20037;-63
2022/05/22 12:54:41;;;;;;;7.63;4.15;;;;;;;;;;5051805;28;21929;-63
2022/05/22 12:57:11;;;;;;;9.60;4.38;;;;;;;;;;5052105;28;20394;-62
2022/05/22 12:59:38;;;;;;;6.63;3.83;;;;;;;;;;5051147;28;20053;-63
2022/05/22 13:02:05;;;;;;;8.15;4.38;;;;;;;;;;5052406;28;20075;-63
2022/05/22 13:04:35;;;;;;;9.00;3.80;;;;;;;;;;5049842;28;20041;-63
2022/05/22 13:07:04;;;;;;;7.63;3.83;;;;;;;;;;5050673;28;20051;-62
2022/05/22 13:09:34;;;;;;;6.68;3.88;;;;;;;;;;5051327;28;20037;-63
2022/05/22 13:12:06;;;;;;;8.95;4.35;;;;;;;;;;5052964;28;20037;-64
2022/05/22 13:14:59;;;;;;;7.95;4.18;;;;;;;;;;5049030;28;20111;-62
2022/05/22 13:17:31;;;;;;;7.00;3.83;;;;;;;;;;5048148;28;20044;-62
2022/05/22 13:20:02;;;;;;;9.15;4.13;;;;;;;;;;5052720;28;20501;-61
2022/05/22 13:22:33;;;;;;;8.02;4.20;;;;;;;;;;5051884;28;20074;-61
2022/05/22 13:25:00;;;;;;;7.65;3.65;;;;;;;;;;5038046;28;20060;-62
2022/05/22 13:27:36;;;;;;;6.85;3.63;;;;;;;;;;5053363;28;20041;-64
2022/05/22 13:30:06;;;;;;;6.13;3.38;;;;;;;;;;5055299;28;20588;-59
2022/05/22 13:32:52;;;;;;;7.85;4.05;;;;;;;;;;5054866;28;20254;-65
2022/05/22 13:35:21;;;;;;;8.00;3.47;;;;;;;;;;5054599;28;20443;-62
2022/05/22 13:37:49;;;;;;;5.82;3.28;;;;;;;;;;5050301;28;20451;-61
2022/05/22 13:40:35;;;;;;;5.38;2.90;;;;;;;;;;5052728;28;20417;-60
2022/05/22 13:43:26;;;;;;;4.78;2.45;;;;;;;;;;5051708;28;20049;-61
2022/05/22 13:46:11;;;;;;;7.70;2.85;;;;;;;;;;5051845;28;20041;-61
2022/05/22 13:48:38;;;;;;;5.32;2.85;;;;;;;;;;5042186;28;20182;-61
2022/05/22 13:54:19;;;;;;;6.65;3.25;;;;;;;;;;5057496;28;20055;-61
2022/05/22 13:56:55;;;;;;;5.95;2.80;;;;;;;;;;5055284;28;20403;-60
2022/05/22 13:59:30;;;;;;;7.10;2.78;;;;;;;;;;5056884;28;20190;-61
2022/05/22 14:02:00;;;;;;;6.82;2.58;;;;;;;;;;5039364;28;20078;-61
2022/05/22 14:04:27;;;;;;;6.13;3.08;;;;;;;;;;5052294;28;20040;-62
2022/05/22 14:06:54;;;;;;;5.78;2.83;;;;;;;;;;5053165;28;20651;-62
2022/05/22 14:09:25;;;;;;;5.10;2.50;;;;;;;;;;5051865;28;20037;-61
2022/05/22 14:11:54;;;;;;;7.28;2.75;;;;;;;;;;5051943;28;20056;-62
2022/05/22 14:14:28;;;;;;;5.15;2.35;;;;;;;;;;5051134;28;20576;-62
2022/05/22 14:17:02;;;;;;;6.53;2.55;;;;;;;;;;5049678;28;20032;-64
2022/05/22 14:19:36;;;;;;;4.70;1.88;;;;;;;;;;5024324;28;20143;-62
2022/05/22 14:22:14;;;;;;;3.80;2.00;;;;;;;;;;5049347;28;20050;-62
2022/05/22 14:25:00;;;;;;;4.20;2.08;;;;;;;;;;5032268;28;20177;-62
2022/05/22 14:27:29;;;;;;;5.05;1.65;;;;;;;;;;5049363;28;20558;-62
2022/05/22 14:30:09;;;;;;;11.50;1.90;;;;;;;;;;5047684;28;20114;-62
2022/05/22 14:32:37;;;;;;;6.28;2.00;;;;;;;;;;5034942;28;20037;-63
2022/05/22 14:35:11;;;;;;;6.32;2.08;;;;;;;;;;5049176;28;20044;-62
2022/05/22 14:37:42;;;;;;;4.93;2.22;;;;;;;;;;5047879;28;20044;-63
2022/05/22 14:40:17;;;;;;;7.85;1.80;;;;;;;;;;5049541;28;21232;-62
2022/05/22 14:42:45;;;;;;;5.20;2.22;;;;;;;;;;5049178;28;20036;-62
2022/05/22 14:45:19;;;;;;;5.43;2.08;;;;;;;;;;5046477;28;20048;-62
2022/05/22 14:47:52;;;;;;;5.50;2.25;;;;;;;;;;5048447;28;20086;-63
2022/05/22 14:50:20;;;;;;;4.57;1.65;;;;;;;;;;5038015;28;20033;-63
2022/05/22 14:52:50;;;;;;;6.65;2.13;;;;;;;;;;5048759;28;20346;-61
2022/05/22 14:55:17;;;;;;;6.63;2.08;;;;;;;;;;5024125;28;20131;-61
2022/05/22 14:57:48;;;;;;;4.55;2.35;;;;;;;;;;5047789;28;20047;-62
2022/05/22 15:00:19;;;;;;;7.03;2.42;;;;;;;;;;5033822;28;20053;-62
2022/05/22 15:02:52;;;;;;;4.50;1.90;;;;;;;;;;5030718;28;20098;-63
2022/05/22 15:05:21;;;;;;;5.95;1.83;;;;;;;;;;5048544;28;20044;-62
2022/05/22 15:07:55;;;;;;;4.93;1.80;;;;;;;;;;5047431;28;20127;-62
2022/05/22 15:10:29;;;;;;;6.68;1.80;;;;;;;;;;5045908;28;20036;-62
2022/05/22 15:13:03;;;;;;;3.97;1.60;;;;;;;;;;5047976;28;20966;-63
2022/05/22 15:15:30;;;;;;;4.80;1.65;;;;;;;;;;5045880;28;20036;-61